Time;durP1;ratioP1;P1;durP2;ratioP2;P2;SDS_P1;SDS_P2;PMS_P1;PMS_P2;Temp;Humidity;BMP_temperature;BMP_pressure;BME280_temperature;BME280_humidity;BME280_pressure;Samples;Min_cycle;Max_cycle;Signal;HPM_P1;HPM_P2
2023/04/30 00:01:09;;;;;;;8.93;3.70;;;;;;;;;;5138661;27;20125;-72
2023/04/30 00:03:36;;;;;;;14.32;4.93;;;;;;;;;;5158139;27;20038;-73
2023/04/30 00:06:02;;;;;;;9.73;3.92;;;;;;;;;;5117352;27;20069;-74
2023/04/30 00:08:29;;;;;;;9.38;3.85;;;;;;;;;;5139324;27;20039;-71
2023/04/30 00:10:55;;;;;;;10.43;3.80;;;;;;;;;;5126350;27;20118;-73
2023/04/30 00:13:21;;;;;;;9.13;4.15;;;;;;;;;;5137413;27;20478;-74
2023/04/30 00:15:47;;;;;;;11.75;3.97;;;;;;;;;;5157267;27;20090;-72
2023/04/30 00:18:13;;;;;;;11.43;4.15;;;;;;;;;;5107151;27;20050;-73
2023/04/30 00:20:39;;;;;;;7.82;3.83;;;;;;;;;;5148933;27;20042;-72
2023/04/30 00:23:05;;;;;;;8.10;4.00;;;;;;;;;;5118598;27;20499;-72
2023/04/30 00:25:31;;;;;;;9.07;3.80;;;;;;;;;;5150555;27;20421;-74
2023/04/30 00:27:57;;;;;;;9.40;4.20;;;;;;;;;;5130727;27;20096;-74
2023/04/30 00:30:23;;;;;;;14.00;4.28;;;;;;;;;;5156952;27;20075;-72
2023/04/30 00:32:49;;;;;;;8.43;3.83;;;;;;;;;;5138804;27;20042;-72
2023/04/30 00:35:15;;;;;;;8.48;3.55;;;;;;;;;;5151362;27;20054;-72
2023/04/30 00:37:41;;;;;;;12.25;4.07;;;;;;;;;;5135593;27;20412;-72
2023/04/30 00:40:08;;;;;;;9.10;4.20;;;;;;;;;;5145639;27;20046;-74
2023/04/30 00:42:34;;;;;;;12.93;4.72;;;;;;;;;;5138386;27;20043;-72
2023/04/30 00:45:00;;;;;;;8.52;3.65;;;;;;;;;;5156633;27;20046;-72
2023/04/30 00:47:26;;;;;;;10.90;3.90;;;;;;;;;;5137981;27;20117;-72
2023/04/30 00:49:53;;;;;;;11.75;4.60;;;;;;;;;;5123655;27;20039;-74
2023/04/30 00:52:19;;;;;;;15.07;4.50;;;;;;;;;;5156771;27;20037;-72
2023/04/30 00:54:45;;;;;;;9.23;4.30;;;;;;;;;;5138409;27;20039;-72
2023/04/30 00:57:15;;;;;;;11.77;4.47;;;;;;;;;;5138123;27;20466;-72
2023/04/30 00:59:41;;;;;;;14.07;4.50;;;;;;;;;;5138566;27;20113;-74
2023/04/30 01:02:07;;;;;;;9.63;4.47;;;;;;;;;;5137846;27;20042;-74
2023/04/30 01:04:34;;;;;;;14.48;4.32;;;;;;;;;;5156575;27;20034;-74
2023/04/30 01:07:02;;;;;;;9.57;4.20;;;;;;;;;;5120798;27;20095;-75
2023/04/30 01:09:28;;;;;;;13.07;5.10;;;;;;;;;;5138310;27;20042;-74
2023/04/30 01:12:18;;;;;;;9.77;4.40;;;;;;;;;;5123439;27;20058;-74
2023/04/30 01:14:54;;;;;;;8.85;4.32;;;;;;;;;;5120853;27;20479;-74
2023/04/30 01:17:31;;;;;;;11.93;4.55;;;;;;;;;;5108043;27;20161;-74
2023/04/30 01:19:57;;;;;;;11.93;4.70;;;;;;;;;;5137716;27;20053;-74
2023/04/30 01:22:26;;;;;;;9.45;4.53;;;;;;;;;;5137411;27;20043;-74
2023/04/30 01:24:55;;;;;;;13.38;5.10;;;;;;;;;;5138152;27;20047;-72
2023/04/30 01:27:49;;;;;;;12.38;4.68;;;;;;;;;;5123159;27;20045;-74
2023/04/30 01:30:16;;;;;;;7.40;3.75;;;;;;;;;;5134962;27;20047;-74
2023/04/30 01:32:42;;;;;;;9.77;4.30;;;;;;;;;;5143738;27;20035;-74
2023/04/30 01:35:09;;;;;;;8.57;4.03;;;;;;;;;;5127041;27;20520;-73
2023/04/30 01:37:58;;;;;;;12.65;5.05;;;;;;;;;;5133801;27;20070;-74
2023/04/30 01:40:33;;;;;;;12.32;4.35;;;;;;;;;;5125604;27;20430;-73
2023/04/30 01:43:16;;;;;;;8.38;4.25;;;;;;;;;;5149753;27;20118;-72
2023/04/30 01:45:49;;;;;;;14.90;4.78;;;;;;;;;;5148923;27;20368;-73
2023/04/30 01:48:29;;;;;;;17.60;4.10;;;;;;;;;;5122707;27;20046;-74
2023/04/30 01:51:04;;;;;;;9.13;4.85;;;;;;;;;;5120042;27;20050;-72
2023/04/30 01:53:32;;;;;;;11.13;3.78;;;;;;;;;;5148093;27;20031;-74
2023/04/30 01:56:03;;;;;;;12.65;4.53;;;;;;;;;;5129004;27;20073;-74
2023/04/30 01:58:30;;;;;;;12.35;4.50;;;;;;;;;;5136155;27;20051;-72
2023/04/30 02:00:56;;;;;;;10.82;4.95;;;;;;;;;;5154145;27;20078;-74
2023/04/30 02:03:22;;;;;;;11.80;4.70;;;;;;;;;;5151510;27;20042;-74
2023/04/30 02:05:48;;;;;;;10.50;4.85;;;;;;;;;;5135844;27;20034;-74
2023/04/30 02:08:14;;;;;;;14.13;5.57;;;;;;;;;;5154451;27;20074;-74
2023/04/30 02:10:40;;;;;;;11.98;4.72;;;;;;;;;;5155203;27;20061;-72
2023/04/30 02:13:06;;;;;;;12.50;4.80;;;;;;;;;;5136501;27;20046;-74
2023/04/30 02:15:32;;;;;;;12.13;4.70;;;;;;;;;;5136843;27;20037;-72
2023/04/30 02:17:58;;;;;;;14.40;4.65;;;;;;;;;;5119370;27;20043;-74
2023/04/30 02:20:24;;;;;;;9.57;4.35;;;;;;;;;;5136529;27;20121;-72
2023/04/30 02:22:51;;;;;;;10.35;4.10;;;;;;;;;;5136433;27;20510;-74
2023/04/30 02:25:17;;;;;;;12.88;4.80;;;;;;;;;;5119287;27;20046;-71
2023/04/30 02:27:43;;;;;;;9.55;4.55;;;;;;;;;;5136156;27;20062;-73
2023/04/30 02:30:09;;;;;;;11.65;4.93;;;;;;;;;;5154447;27;20567;-74
2023/04/30 02:32:35;;;;;;;10.30;4.70;;;;;;;;;;5154607;27;20087;-74
2023/04/30 02:35:01;;;;;;;11.10;4.10;;;;;;;;;;5148252;27;20039;-72
2023/04/30 02:37:28;;;;;;;12.82;4.72;;;;;;;;;;5146652;27;20046;-74
2023/04/30 02:39:54;;;;;;;10.15;3.83;;;;;;;;;;5139932;27;20403;-74
2023/04/30 02:42:20;;;;;;;12.38;5.18;;;;;;;;;;5154436;27;20487;-72
2023/04/30 02:44:46;;;;;;;9.40;4.03;;;;;;;;;;5136272;27;20495;-72
2023/04/30 02:47:12;;;;;;;12.02;3.97;;;;;;;;;;5118690;27;20042;-74
2023/04/30 02:49:39;;;;;;;12.15;4.78;;;;;;;;;;5136016;27;20046;-71
2023/04/30 02:52:06;;;;;;;11.15;4.88;;;;;;;;;;5154445;27;20035;-71
2023/04/30 02:54:32;;;;;;;14.52;5.40;;;;;;;;;;5152510;27;20046;-71
2023/04/30 02:56:58;;;;;;;16.40;5.18;;;;;;;;;;5135828;27;20057;-71
2023/04/30 02:59:24;;;;;;;10.88;5.00;;;;;;;;;;5118295;27;20042;-74
2023/04/30 03:01:50;;;;;;;12.07;5.05;;;;;;;;;;5135749;27;20035;-72
2023/04/30 03:04:16;;;;;;;15.43;5.32;;;;;;;;;;5153992;27;20046;-74
2023/04/30 03:06:42;;;;;;;13.60;5.13;;;;;;;;;;5154145;27;20038;-71
2023/04/30 03:09:08;;;;;;;9.95;4.60;;;;;;;;;;5147626;27;20504;-71
2023/04/30 03:11:36;;;;;;;13.20;4.78;;;;;;;;;;5127658;27;20039;-72
2023/04/30 03:14:03;;;;;;;13.73;5.03;;;;;;;;;;5154204;27;20046;-72
2023/04/30 03:16:30;;;;;;;10.50;4.78;;;;;;;;;;5115270;27;20077;-72
2023/04/30 03:18:56;;;;;;;13.18;5.10;;;;;;;;;;5136259;27;20043;-72
2023/04/30 03:21:22;;;;;;;7.63;3.30;;;;;;;;;;5135688;27;20055;-72
2023/04/30 03:23:48;;;;;;;9.82;4.65;;;;;;;;;;5135575;27;20043;-72
2023/04/30 03:26:14;;;;;;;11.15;4.65;;;;;;;;;;5154286;27;20035;-72
2023/04/30 03:28:40;;;;;;;11.93;4.90;;;;;;;;;;5135243;27;20043;-74
2023/04/30 03:31:06;;;;;;;11.50;4.60;;;;;;;;;;5135151;27;20047;-74
2023/04/30 03:33:33;;;;;;;9.80;4.70;;;;;;;;;;5134993;27;20111;-74
2023/04/30 03:35:59;;;;;;;8.60;3.90;;;;;;;;;;5135760;27;20443;-74
2023/04/30 03:38:25;;;;;;;11.60;3.95;;;;;;;;;;5138352;27;20049;-74
2023/04/30 03:40:51;;;;;;;8.70;3.70;;;;;;;;;;5140721;27;20043;-74
2023/04/30 03:43:17;;;;;;;11.90;4.32;;;;;;;;;;5140706;27;20035;-74
2023/04/30 03:45:43;;;;;;;9.07;4.38;;;;;;;;;;5147700;27;20027;-74
2023/04/30 03:48:09;;;;;;;10.18;4.07;;;;;;;;;;5126796;27;20595;-72
2023/04/30 03:50:36;;;;;;;9.63;4.05;;;;;;;;;;5117548;27;20118;-73
2023/04/30 03:53:02;;;;;;;8.30;3.33;;;;;;;;;;5114820;28;20051;-74
2023/04/30 03:55:28;;;;;;;9.50;3.22;;;;;;;;;;5148601;27;20402;-74
2023/04/30 03:57:54;;;;;;;9.98;2.90;;;;;;;;;;5153703;27;20136;-72
2023/04/30 04:00:20;;;;;;;8.95;3.30;;;;;;;;;;5117944;27;20538;-72
2023/04/30 04:02:46;;;;;;;8.73;3.28;;;;;;;;;;5132219;27;20483;-72
2023/04/30 04:05:12;;;;;;;10.80;3.83;;;;;;;;;;5150815;27;20038;-72
2023/04/30 04:07:39;;;;;;;10.82;3.88;;;;;;;;;;5134952;27;20506;-72
2023/04/30 04:10:05;;;;;;;15.07;5.18;;;;;;;;;;5154154;27;20039;-72
2023/04/30 04:12:31;;;;;;;7.97;4.25;;;;;;;;;;5135158;27;20444;-74
2023/04/30 04:14:58;;;;;;;10.25;4.30;;;;;;;;;;5135253;27;20034;-74
2023/04/30 04:17:24;;;;;;;8.60;3.88;;;;;;;;;;5117654;27;20046;-74
2023/04/30 04:19:50;;;;;;;8.80;4.32;;;;;;;;;;5153546;27;20043;-74
2023/04/30 04:22:16;;;;;;;7.60;3.35;;;;;;;;;;5137777;27;20045;-74
2023/04/30 04:24:42;;;;;;;11.38;4.07;;;;;;;;;;5138646;27;20089;-74
2023/04/30 04:27:08;;;;;;;7.20;3.47;;;;;;;;;;5139087;27;20063;-72
2023/04/30 04:29:35;;;;;;;12.55;4.10;;;;;;;;;;5150890;27;20043;-72
2023/04/30 04:32:03;;;;;;;12.77;4.20;;;;;;;;;;5136338;27;20039;-71
2023/04/30 04:34:29;;;;;;;7.47;3.83;;;;;;;;;;5136568;27;20046;-72
2023/04/30 04:36:57;;;;;;;12.20;4.45;;;;;;;;;;5138887;27;20035;-72
2023/04/30 04:39:23;;;;;;;10.00;4.22;;;;;;;;;;5136190;27;20050;-74
2023/04/30 04:41:49;;;;;;;10.15;4.63;;;;;;;;;;5126660;27;20041;-72
2023/04/30 04:44:15;;;;;;;9.73;4.22;;;;;;;;;;5142349;27;20118;-74
2023/04/30 04:46:43;;;;;;;12.75;4.60;;;;;;;;;;5156612;27;20042;-72
2023/04/30 04:49:09;;;;;;;10.60;4.82;;;;;;;;;;5138478;27;20049;-72
2023/04/30 04:51:35;;;;;;;10.95;4.10;;;;;;;;;;5156637;27;20031;-72
2023/04/30 04:54:02;;;;;;;10.55;3.42;;;;;;;;;;5138219;27;20095;-74
2023/04/30 04:56:28;;;;;;;10.75;4.30;;;;;;;;;;5135179;27;20114;-72
2023/04/30 04:58:54;;;;;;;10.05;3.90;;;;;;;;;;5127517;27;20034;-72
2023/04/30 05:01:20;;;;;;;9.13;4.05;;;;;;;;;;5136747;27;20096;-74
2023/04/30 05:03:47;;;;;;;12.35;4.43;;;;;;;;;;5121019;27;20440;-72
2023/04/30 05:06:13;;;;;;;12.23;4.70;;;;;;;;;;5128216;27;20103;-74
2023/04/30 05:08:40;;;;;;;9.23;4.43;;;;;;;;;;5102578;27;20475;-74
2023/04/30 05:11:06;;;;;;;12.70;4.00;;;;;;;;;;5138326;27;20034;-73
2023/04/30 05:13:32;;;;;;;10.63;4.50;;;;;;;;;;5123800;27;20046;-73
2023/04/30 05:15:58;;;;;;;9.80;3.80;;;;;;;;;;5156567;27;20043;-73
2023/04/30 05:18:24;;;;;;;11.05;4.22;;;;;;;;;;5156319;27;20074;-73
2023/04/30 05:20:50;;;;;;;8.35;4.07;;;;;;;;;;5156244;27;20506;-73
2023/04/30 05:23:16;;;;;;;7.57;3.63;;;;;;;;;;5137665;27;20053;-74
2023/04/30 05:25:42;;;;;;;10.13;3.83;;;;;;;;;;5137284;27;20051;-75
2023/04/30 05:28:08;;;;;;;8.95;4.00;;;;;;;;;;5156036;27;20050;-73
2023/04/30 05:30:34;;;;;;;9.85;4.00;;;;;;;;;;5137095;27;20058;-73
2023/04/30 05:33:01;;;;;;;9.02;3.90;;;;;;;;;;5120479;27;20043;-73
2023/04/30 05:35:27;;;;;;;9.48;3.60;;;;;;;;;;5137437;27;20035;-75
2023/04/30 05:37:53;;;;;;;8.88;3.45;;;;;;;;;;5141092;27;20043;-74
2023/04/30 05:40:19;;;;;;;8.23;3.45;;;;;;;;;;5137320;27;20042;-74
2023/04/30 05:42:45;;;;;;;8.90;3.25;;;;;;;;;;5137291;27;20035;-73
2023/04/30 05:45:13;;;;;;;11.63;3.08;;;;;;;;;;5137187;27;20054;-73
2023/04/30 05:47:42;;;;;;;6.30;3.30;;;;;;;;;;5134969;27;20035;-73
2023/04/30 05:50:09;;;;;;;9.23;3.45;;;;;;;;;;5137220;27;20050;-73
2023/04/30 05:52:35;;;;;;;11.95;4.03;;;;;;;;;;5119743;27;20043;-73
2023/04/30 05:55:01;;;;;;;9.25;3.53;;;;;;;;;;5136894;27;20042;-73
2023/04/30 05:57:29;;;;;;;9.63;3.17;;;;;;;;;;5155718;27;20043;-76
2023/04/30 05:59:55;;;;;;;9.57;3.03;;;;;;;;;;5154908;27;20043;-76
2023/04/30 06:02:21;;;;;;;9.20;3.03;;;;;;;;;;5136955;27;20475;-74
2023/04/30 06:04:47;;;;;;;7.75;3.05;;;;;;;;;;5155192;27;20031;-77
2023/04/30 06:07:13;;;;;;;12.45;3.25;;;;;;;;;;5155255;27;20109;-75
2023/04/30 06:09:40;;;;;;;7.57;2.83;;;;;;;;;;5136398;27;20031;-76
2023/04/30 06:12:06;;;;;;;10.00;2.90;;;;;;;;;;5099116;27;20042;-78
2023/04/30 06:14:32;;;;;;;6.13;2.75;;;;;;;;;;5154961;27;20039;-81
2023/04/30 06:16:58;;;;;;;9.27;2.72;;;;;;;;;;5124269;27;20043;-79
2023/04/30 06:19:24;;;;;;;9.63;2.80;;;;;;;;;;5152970;27;20117;-74
2023/04/30 06:21:50;;;;;;;9.82;2.78;;;;;;;;;;5109000;27;20438;-77
2023/04/30 06:24:16;;;;;;;8.18;2.72;;;;;;;;;;5134106;27;20043;-77
2023/04/30 06:26:42;;;;;;;8.32;2.47;;;;;;;;;;5115860;27;20043;-74
2023/04/30 06:29:08;;;;;;;7.20;2.30;;;;;;;;;;5113302;27;20058;-79
2023/04/30 06:31:35;;;;;;;7.22;2.50;;;;;;;;;;5136402;27;20039;-75
2023/04/30 06:34:02;;;;;;;5.78;2.60;;;;;;;;;;5154968;27;20046;-74
2023/04/30 06:36:28;;;;;;;7.50;2.58;;;;;;;;;;5117471;27;20039;-77
2023/04/30 06:38:54;;;;;;;9.30;2.60;;;;;;;;;;5145015;27;20089;-79
2023/04/30 06:41:20;;;;;;;6.60;2.30;;;;;;;;;;5119310;27;20038;-78
2023/04/30 06:43:46;;;;;;;8.27;2.40;;;;;;;;;;5135378;27;20074;-79
2023/04/30 06:46:13;;;;;;;7.43;2.47;;;;;;;;;;5116822;27;20039;-79
2023/04/30 06:48:40;;;;;;;9.85;2.72;;;;;;;;;;5122781;27;20039;-80
2023/04/30 06:51:06;;;;;;;11.18;2.60;;;;;;;;;;5134524;27;20030;-79
2023/04/30 06:53:32;;;;;;;6.25;2.42;;;;;;;;;;5154748;27;20508;-77
2023/04/30 06:55:58;;;;;;;8.45;2.65;;;;;;;;;;5136265;27;20038;-78
2023/04/30 06:58:24;;;;;;;6.93;2.30;;;;;;;;;;5108847;27;20047;-78
2023/04/30 07:00:51;;;;;;;7.82;2.55;;;;;;;;;;5133258;27;20122;-75
2023/04/30 07:03:17;;;;;;;8.95;2.70;;;;;;;;;;5154819;27;20038;-76
2023/04/30 07:05:43;;;;;;;6.68;2.60;;;;;;;;;;5104173;27;20034;-75
2023/04/30 07:08:09;;;;;;;10.65;2.50;;;;;;;;;;5135842;27;20042;-78
2023/04/30 07:10:36;;;;;;;6.70;2.30;;;;;;;;;;5135956;27;20382;-74
2023/04/30 07:13:02;;;;;;;5.50;1.98;;;;;;;;;;5144237;27;20065;-77
2023/04/30 07:15:28;;;;;;;6.72;2.50;;;;;;;;;;5131542;27;20039;-74
2023/04/30 07:17:54;;;;;;;7.50;2.08;;;;;;;;;;5127846;27;20057;-75
2023/04/30 07:20:20;;;;;;;7.65;2.00;;;;;;;;;;5098142;27;20046;-76
2023/04/30 07:22:46;;;;;;;7.28;2.00;;;;;;;;;;5114796;28;20503;-76
2023/04/30 07:25:13;;;;;;;8.38;2.00;;;;;;;;;;5115363;28;20460;-77
2023/04/30 07:27:39;;;;;;;9.38;2.20;;;;;;;;;;5152336;27;20368;-79
2023/04/30 07:30:07;;;;;;;7.30;1.73;;;;;;;;;;5135378;27;20062;-79
2023/04/30 07:32:34;;;;;;;8.32;2.42;;;;;;;;;;5115731;27;20126;-76
2023/04/30 07:35:00;;;;;;;8.60;2.17;;;;;;;;;;5123741;27;20043;-75
2023/04/30 07:37:26;;;;;;;6.65;2.25;;;;;;;;;;5121254;27;20035;-77
2023/04/30 07:39:52;;;;;;;7.15;2.28;;;;;;;;;;5114663;28;20043;-74
2023/04/30 07:42:18;;;;;;;7.07;2.20;;;;;;;;;;5133319;27;20040;-74
2023/04/30 07:44:45;;;;;;;9.52;2.55;;;;;;;;;;5095686;28;20487;-75
2023/04/30 07:47:11;;;;;;;6.18;2.00;;;;;;;;;;5114474;28;20046;-77
2023/04/30 07:49:38;;;;;;;7.45;2.00;;;;;;;;;;5133214;27;20046;-75
2023/04/30 07:52:04;;;;;;;6.45;2.08;;;;;;;;;;5124266;27;20038;-76
2023/04/30 07:54:30;;;;;;;7.82;2.20;;;;;;;;;;5102462;27;20039;-79
2023/04/30 07:56:57;;;;;;;4.82;1.90;;;;;;;;;;5129749;27;20114;-75
2023/04/30 07:59:23;;;;;;;4.90;1.98;;;;;;;;;;5139166;27;20127;-76
2023/04/30 08:01:50;;;;;;;7.25;2.17;;;;;;;;;;5105606;27;20039;-75
2023/04/30 08:04:16;;;;;;;5.90;2.10;;;;;;;;;;5133024;27;20069;-79
2023/04/30 08:06:42;;;;;;;7.78;2.28;;;;;;;;;;5118414;27;20100;-75
2023/04/30 08:09:08;;;;;;;8.93;2.30;;;;;;;;;;5139018;27;20376;-76
2023/04/30 08:11:34;;;;;;;5.28;1.90;;;;;;;;;;5139164;27;20043;-78
2023/04/30 08:14:00;;;;;;;6.55;2.22;;;;;;;;;;5121493;27;20085;-76
2023/04/30 08:16:26;;;;;;;6.70;2.50;;;;;;;;;;5139015;27;20045;-78
2023/04/30 08:18:54;;;;;;;7.80;2.20;;;;;;;;;;5107519;27;20575;-77
2023/04/30 08:21:20;;;;;;;7.00;2.70;;;;;;;;;;5139064;27;20038;-75
2023/04/30 08:23:46;;;;;;;7.53;2.30;;;;;;;;;;5121778;27;20042;-75
2023/04/30 08:26:12;;;;;;;6.90;2.28;;;;;;;;;;5148154;27;20047;-80
2023/04/30 08:28:38;;;;;;;8.35;2.22;;;;;;;;;;5151538;27;20487;-75
2023/04/30 08:31:04;;;;;;;5.82;1.88;;;;;;;;;;5138523;27;20054;-75
2023/04/30 08:33:30;;;;;;;6.07;2.13;;;;;;;;;;5157362;27;20114;-78
2023/04/30 08:35:58;;;;;;;7.72;2.05;;;;;;;;;;5137319;27;20049;-75
2023/04/30 08:38:25;;;;;;;6.00;1.88;;;;;;;;;;5148061;27;20043;-75
2023/04/30 08:41:05;;;;;;;9.13;2.25;;;;;;;;;;5157359;27;20440;-75
2023/04/30 08:43:34;;;;;;;5.90;1.88;;;;;;;;;;5138591;27;20203;-75
2023/04/30 08:46:00;;;;;;;6.43;1.83;;;;;;;;;;5142498;27;20454;-75
2023/04/30 08:48:27;;;;;;;6.10;1.90;;;;;;;;;;5101282;27;20042;-82
2023/04/30 08:50:53;;;;;;;7.13;1.90;;;;;;;;;;5136497;27;20099;-78
2023/04/30 08:53:20;;;;;;;5.00;1.83;;;;;;;;;;5156918;27;20483;-78
2023/04/30 08:55:46;;;;;;;8.00;2.10;;;;;;;;;;5139611;27;20046;-77
2023/04/30 08:58:12;;;;;;;7.30;2.20;;;;;;;;;;5126653;27;20125;-76
2023/04/30 09:00:39;;;;;;;7.53;1.90;;;;;;;;;;5136971;27;20038;-75
2023/04/30 09:03:06;;;;;;;6.70;2.22;;;;;;;;;;5107276;27;20039;-76
2023/04/30 09:05:32;;;;;;;6.47;2.10;;;;;;;;;;5156311;27;20034;-76
2023/04/30 09:07:58;;;;;;;6.78;2.28;;;;;;;;;;5156107;27;20038;-77
2023/04/30 09:10:24;;;;;;;5.75;2.00;;;;;;;;;;5129707;27;20091;-78
2023/04/30 09:13:02;;;;;;;6.70;2.10;;;;;;;;;;5120899;27;20501;-76
2023/04/30 09:15:29;;;;;;;6.28;2.15;;;;;;;;;;5154026;27;20034;-78
2023/04/30 09:18:18;;;;;;;5.63;2.03;;;;;;;;;;5135916;27;20072;-79
2023/04/30 09:20:55;;;;;;;8.32;1.90;;;;;;;;;;5154113;27;20038;-75
2023/04/30 09:23:21;;;;;;;6.00;2.13;;;;;;;;;;5137887;27;20042;-77
2023/04/30 09:25:47;;;;;;;5.45;2.30;;;;;;;;;;5137785;27;20045;-75
2023/04/30 09:28:14;;;;;;;6.93;1.88;;;;;;;;;;5155967;27;20115;-78
2023/04/30 09:30:40;;;;;;;4.78;2.00;;;;;;;;;;5155955;27;20053;-78
2023/04/30 09:33:07;;;;;;;4.68;2.10;;;;;;;;;;5137144;27;20103;-76
2023/04/30 09:35:34;;;;;;;5.50;2.13;;;;;;;;;;5156282;27;20367;-75
2023/04/30 09:38:01;;;;;;;6.80;1.92;;;;;;;;;;5123343;27;20371;-75
2023/04/30 09:40:37;;;;;;;5.80;2.30;;;;;;;;;;5137436;27;20049;-75
2023/04/30 09:43:04;;;;;;;5.32;2.42;;;;;;;;;;5140966;27;20062;-75
2023/04/30 09:45:47;;;;;;;4.50;2.05;;;;;;;;;;5120407;27;20047;-75
2023/04/30 09:48:17;;;;;;;6.63;2.10;;;;;;;;;;5155973;27;20344;-75
2023/04/30 09:50:46;;;;;;;5.40;2.28;;;;;;;;;;5137553;27;20042;-74
2023/04/30 09:53:13;;;;;;;5.88;2.40;;;;;;;;;;5150099;27;20039;-76
2023/04/30 09:55:42;;;;;;;5.50;2.30;;;;;;;;;;5116744;27;20043;-76
2023/04/30 09:58:09;;;;;;;6.32;2.47;;;;;;;;;;5116140;27;20046;-77
2023/04/30 10:00:35;;;;;;;7.75;2.50;;;;;;;;;;5144924;27;20038;-77
2023/04/30 10:03:28;;;;;;;6.63;2.25;;;;;;;;;;5101425;27;20047;-76
2023/04/30 10:05:54;;;;;;;6.20;2.17;;;;;;;;;;5121372;27;20054;-75
2023/04/30 10:08:23;;;;;;;8.02;2.53;;;;;;;;;;5136644;27;20088;-77
2023/04/30 10:11:00;;;;;;;4.75;2.10;;;;;;;;;;5116255;27;20038;-77
2023/04/30 10:13:30;;;;;;;7.93;2.42;;;;;;;;;;5116181;27;20510;-74
2023/04/30 10:15:58;;;;;;;8.30;2.60;;;;;;;;;;5122783;27;20039;-75
2023/04/30 10:18:34;;;;;;;5.95;2.33;;;;;;;;;;5154723;27;20168;-79
2023/04/30 10:21:09;;;;;;;4.10;2.00;;;;;;;;;;5099277;27;20050;-75
2023/04/30 10:23:36;;;;;;;7.53;2.20;;;;;;;;;;5129413;27;20070;-75
2023/04/30 10:26:03;;;;;;;6.28;2.15;;;;;;;;;;5119395;27;20043;-74
2023/04/30 10:28:30;;;;;;;6.93;2.25;;;;;;;;;;5136446;27;20407;-77
2023/04/30 10:30:56;;;;;;;7.90;2.80;;;;;;;;;;5136051;27;20051;-74
2023/04/30 10:33:32;;;;;;;5.82;1.98;;;;;;;;;;5115814;27;20114;-75
2023/04/30 10:36:03;;;;;;;6.78;2.25;;;;;;;;;;5133371;27;20035;-76
2023/04/30 10:38:30;;;;;;;7.65;2.20;;;;;;;;;;5125427;27;20126;-74
2023/04/30 10:40:58;;;;;;;5.57;2.10;;;;;;;;;;5136527;27;20478;-77
2023/04/30 10:43:25;;;;;;;7.32;2.60;;;;;;;;;;5135846;27;20046;-78
2023/04/30 10:45:51;;;;;;;5.53;2.30;;;;;;;;;;5116176;27;20055;-74
2023/04/30 10:48:23;;;;;;;5.32;2.63;;;;;;;;;;5154392;27;20087;-76
2023/04/30 10:50:51;;;;;;;6.05;2.28;;;;;;;;;;5119535;27;20391;-75
2023/04/30 10:53:18;;;;;;;6.32;2.47;;;;;;;;;;5104436;27;20037;-75
2023/04/30 10:55:47;;;;;;;7.57;2.60;;;;;;;;;;5136365;27;20518;-77
2023/04/30 10:58:33;;;;;;;7.90;2.60;;;;;;;;;;5118411;27;20046;-76
2023/04/30 11:01:00;;;;;;;;;;;;;;;;;;5136399;27;20034;-78
2023/04/30 11:03:28;;;;;;;6.78;2.50;;;;;;;;;;5154192;27;19950;-75
2023/04/30 11:05:54;;;;;;;5.13;2.33;;;;;;;;;;5154611;27;20117;-74
2023/04/30 11:08:31;;;;;;;5.70;2.20;;;;;;;;;;5121740;27;20072;-74
2023/04/30 11:11:00;;;;;;;5.18;2.08;;;;;;;;;;5141173;27;20445;-76
2023/04/30 11:13:27;;;;;;;6.53;2.10;;;;;;;;;;5153961;27;20035;-76
2023/04/30 11:15:53;;;;;;;5.45;2.05;;;;;;;;;;5118999;27;20395;-74
2023/04/30 11:18:19;;;;;;;5.72;2.35;;;;;;;;;;5135693;27;20038;-75
2023/04/30 11:20:50;;;;;;;5.03;2.30;;;;;;;;;;5118634;27;20042;-78
2023/04/30 11:23:17;;;;;;;7.38;2.42;;;;;;;;;;5135785;27;20056;-75
2023/04/30 11:25:44;;;;;;;5.00;2.05;;;;;;;;;;5154449;27;20039;-74
2023/04/30 11:28:14;;;;;;;6.00;2.40;;;;;;;;;;5135678;27;20047;-75
2023/04/30 11:30:41;;;;;;;7.72;2.13;;;;;;;;;;5138898;27;20059;-75
2023/04/30 11:33:08;;;;;;;8.77;2.20;;;;;;;;;;5154598;27;20376;-75
2023/04/30 11:35:34;;;;;;;4.25;2.00;;;;;;;;;;5097637;27;20035;-76
2023/04/30 11:38:01;;;;;;;5.60;1.75;;;;;;;;;;5141448;27;20042;-73
2023/04/30 11:40:28;;;;;;;6.38;1.90;;;;;;;;;;5158657;27;20089;-74
2023/04/30 11:42:55;;;;;;;7.45;2.03;;;;;;;;;;5161212;27;20045;-74
2023/04/30 11:45:22;;;;;;;6.45;2.33;;;;;;;;;;5105373;27;20038;-77
2023/04/30 11:47:53;;;;;;;8.27;2.47;;;;;;;;;;5140120;27;20047;-75
2023/04/30 11:50:26;;;;;;;7.28;2.00;;;;;;;;;;5125856;27;20099;-73
2023/04/30 11:52:53;;;;;;;4.95;2.00;;;;;;;;;;5142515;27;20099;-76
2023/04/30 11:55:20;;;;;;;6.30;2.13;;;;;;;;;;5124704;27;20087;-73
2023/04/30 11:57:48;;;;;;;4.57;1.75;;;;;;;;;;5150130;27;20046;-77
2023/04/30 12:00:18;;;;;;;7.90;2.53;;;;;;;;;;5141386;27;20054;-76
2023/04/30 12:02:45;;;;;;;5.55;2.15;;;;;;;;;;5160035;27;20039;-75
2023/04/30 12:05:15;;;;;;;5.15;2.08;;;;;;;;;;5161677;27;20121;-76
2023/04/30 12:07:49;;;;;;;4.00;1.77;;;;;;;;;;5143343;27;20506;-75
2023/04/30 12:10:15;;;;;;;4.82;1.83;;;;;;;;;;5160987;27;20063;-73
2023/04/30 12:12:42;;;;;;;6.15;2.00;;;;;;;;;;5142557;27;20035;-74
2023/04/30 12:15:16;;;;;;;7.10;2.30;;;;;;;;;;5142448;27;20095;-75
2023/04/30 12:17:42;;;;;;;5.35;1.88;;;;;;;;;;5097633;27;20119;-77
2023/04/30 12:20:09;;;;;;;7.07;2.60;;;;;;;;;;5142324;27;20039;-76
2023/04/30 12:22:38;;;;;;;7.35;2.28;;;;;;;;;;5160555;27;20039;-74
2023/04/30 12:25:09;;;;;;;6.10;2.00;;;;;;;;;;5142216;27;20476;-75
2023/04/30 12:27:36;;;;;;;7.97;2.50;;;;;;;;;;5141872;27;20478;-74
2023/04/30 12:30:03;;;;;;;5.82;2.22;;;;;;;;;;5142106;27;20061;-75
2023/04/30 12:32:29;;;;;;;7.97;2.60;;;;;;;;;;5160534;27;20428;-74
2023/04/30 12:35:00;;;;;;;7.10;2.28;;;;;;;;;;5141755;27;20031;-75
2023/04/30 12:37:26;;;;;;;5.45;1.95;;;;;;;;;;5160220;27;20106;-74
2023/04/30 12:39:55;;;;;;;4.13;2.20;;;;;;;;;;5117522;27;20038;-75
2023/04/30 12:42:21;;;;;;;5.90;2.05;;;;;;;;;;5151056;27;20118;-74
2023/04/30 12:44:47;;;;;;;6.95;2.13;;;;;;;;;;5138244;27;20045;-77
2023/04/30 12:47:14;;;;;;;5.57;2.10;;;;;;;;;;5109335;27;20118;-78
2023/04/30 12:49:40;;;;;;;5.00;1.92;;;;;;;;;;5154851;27;20062;-76
2023/04/30 12:52:10;;;;;;;5.63;2.10;;;;;;;;;;5147159;27;20039;-80
2023/04/30 12:54:37;;;;;;;10.07;2.40;;;;;;;;;;5135051;27;20039;-80
2023/04/30 12:57:08;;;;;;;9.15;2.25;;;;;;;;;;5157097;27;20070;-76
2023/04/30 12:59:36;;;;;;;3.75;2.00;;;;;;;;;;5142892;27;20398;-76
2023/04/30 13:02:10;;;;;;;5.72;1.88;;;;;;;;;;5138234;27;20042;-71
2023/04/30 13:04:36;;;;;;;4.20;1.73;;;;;;;;;;5128798;27;20397;-71
2023/04/30 13:07:03;;;;;;;5.22;2.28;;;;;;;;;;5138088;27;20034;-73
2023/04/30 13:09:30;;;;;;;5.13;1.98;;;;;;;;;;5138983;27;20046;-85
2023/04/30 13:11:56;;;;;;;5.80;2.05;;;;;;;;;;5138527;27;20121;-78
2023/04/30 13:14:22;;;;;;;6.70;2.25;;;;;;;;;;5138554;27;20049;-78
2023/04/30 13:16:48;;;;;;;4.57;1.90;;;;;;;;;;5107817;27;20059;-78
2023/04/30 13:19:14;;;;;;;5.43;1.85;;;;;;;;;;5120098;27;20039;-79
2023/04/30 13:21:41;;;;;;;14.18;2.30;;;;;;;;;;5156599;27;20395;-76
2023/04/30 13:24:07;;;;;;;13.25;2.00;;;;;;;;;;5156233;27;20034;-76
2023/04/30 13:26:33;;;;;;;4.13;1.80;;;;;;;;;;5120731;27;20435;-76
2023/04/30 13:28:59;;;;;;;5.43;1.90;;;;;;;;;;5137344;27;20050;-80
2023/04/30 13:31:25;;;;;;;123.85;7.97;;;;;;;;;;5137631;27;20047;-79
2023/04/30 13:33:53;;;;;;;74.18;5.22;;;;;;;;;;5137540;27;20046;-78
2023/04/30 13:36:19;;;;;;;8.85;2.53;;;;;;;;;;5149901;27;20101;-78
2023/04/30 13:38:46;;;;;;;5.57;2.03;;;;;;;;;;5129417;27;20050;-77
2023/04/30 13:41:12;;;;;;;6.32;1.67;;;;;;;;;;5123050;27;20053;-70
2023/04/30 13:43:40;;;;;;;4.45;2.08;;;;;;;;;;5137377;27;20046;-74
2023/04/30 13:46:07;;;;;;;4.55;2.08;;;;;;;;;;5137149;27;20050;-78
2023/04/30 13:48:33;;;;;;;6.72;2.00;;;;;;;;;;5156030;27;20065;-82
2023/04/30 13:51:00;;;;;;;4.93;1.60;;;;;;;;;;5155653;27;20035;-77
2023/04/30 13:53:26;;;;;;;6.45;1.70;;;;;;;;;;5136605;27;20109;-74
2023/04/30 13:55:52;;;;;;;5.72;1.77;;;;;;;;;;5155950;27;20084;-72
2023/04/30 13:58:18;;;;;;;5.30;1.70;;;;;;;;;;5131938;27;20035;-71
2023/04/30 14:00:45;;;;;;;7.28;1.77;;;;;;;;;;5146110;27;20062;-72
2023/04/30 14:03:11;;;;;;;5.38;1.60;;;;;;;;;;5155717;27;20399;-77
2023/04/30 14:05:38;;;;;;;6.55;1.73;;;;;;;;;;5119795;27;20479;-72
2023/04/30 14:08:04;;;;;;;4.38;1.60;;;;;;;;;;5137414;27;20065;-74
2023/04/30 14:10:31;;;;;;;3.40;1.40;;;;;;;;;;5122563;27;20046;-74
2023/04/30 14:12:57;;;;;;;4.53;1.80;;;;;;;;;;5136917;27;20042;-70
2023/04/30 14:15:23;;;;;;;4.03;1.65;;;;;;;;;;5155261;27;20111;-76
2023/04/30 14:17:51;;;;;;;4.57;1.60;;;;;;;;;;5136726;27;20037;-73
2023/04/30 14:20:18;;;;;;;4.18;1.63;;;;;;;;;;5142079;27;20031;-73
2023/04/30 14:22:44;;;;;;;3.63;1.60;;;;;;;;;;5137134;27;20042;-76
2023/04/30 14:25:11;;;;;;;4.38;1.70;;;;;;;;;;5136678;27;20039;-73
2023/04/30 14:27:37;;;;;;;7.00;1.80;;;;;;;;;;5112260;27;20043;-72
2023/04/30 14:30:03;;;;;;;4.03;1.42;;;;;;;;;;5115983;27;20126;-76
2023/04/30 14:32:30;;;;;;;4.53;1.67;;;;;;;;;;5149210;27;20046;-75
2023/04/30 14:34:56;;;;;;;5.75;1.70;;;;;;;;;;5105416;27;20045;-74
2023/04/30 14:37:22;;;;;;;5.63;1.60;;;;;;;;;;5155337;27;20035;-75
2023/04/30 14:39:48;;;;;;;4.22;1.63;;;;;;;;;;5119219;27;20100;-74
2023/04/30 14:42:14;;;;;;;4.88;1.55;;;;;;;;;;5136748;27;20073;-73